sensor_id;sensor_type;location;lat;lon;timestamp;P1;durP1;ratioP1;P2;durP2;ratioP2
85871;SDS011;76390;44.082;3.046;2024-03-23T00:53:42;5.57;;;2.42;;
85871;SDS011;76390;44.082;3.046;2024-03-23T00:56:08;5.85;;;2.25;;
85871;SDS011;76390;44.082;3.046;2024-03-23T00:58:34;4.95;;;2.33;;
85871;SDS011;76390;44.082;3.046;2024-03-23T01:01:00;6.40;;;2.72;;
85871;SDS011;76390;44.082;3.046;2024-03-23T01:03:25;4.30;;;2.17;;
85871;SDS011;76390;44.082;3.046;2024-03-23T01:05:51;4.28;;;2.05;;
85871;SDS011;76390;44.082;3.046;2024-03-23T01:08:18;4.85;;;2.20;;
85871;SDS011;76390;44.082;3.046;2024-03-23T01:10:53;6.38;;;2.42;;
85871;SDS011;76390;44.082;3.046;2024-03-23T01:13:19;6.85;;;2.35;;
85871;SDS011;76390;44.082;3.046;2024-03-23T01:15:50;7.40;;;2.55;;
85871;SDS011;76390;44.082;3.046;2024-03-23T01:18:19;6.47;;;2.22;;
85871;SDS011;76390;44.082;3.046;2024-03-23T01:20:45;5.47;;;2.45;;
85871;SDS011;76390;44.082;3.046;2024-03-23T01:23:11;6.47;;;2.40;;
85871;SDS011;76390;44.082;3.046;2024-03-23T01:25:37;4.63;;;2.25;;
85871;SDS011;76390;44.082;3.046;2024-03-23T01:28:02;5.35;;;2.45;;
85871;SDS011;76390;44.082;3.046;2024-03-23T01:30:28;5.00;;;2.10;;
85871;SDS011;76390;44.082;3.046;2024-03-23T01:32:54;5.65;;;2.70;;
85871;SDS011;76390;44.082;3.046;2024-03-23T01:35:19;4.38;;;2.38;;
85871;SDS011;76390;44.082;3.046;2024-03-23T01:37:45;6.22;;;2.65;;
85871;SDS011;76390;44.082;3.046;2024-03-23T01:40:10;4.85;;;2.70;;
85871;SDS011;76390;44.082;3.046;2024-03-23T01:42:38;6.03;;;2.63;;
85871;SDS011;76390;44.082;3.046;2024-03-23T01:45:06;7.80;;;2.72;;
85871;SDS011;76390;44.082;3.046;2024-03-23T01:47:34;6.03;;;2.20;;
85871;SDS011;76390;44.082;3.046;2024-03-23T01:50:00;5.43;;;2.47;;
85871;SDS011;76390;44.082;3.046;2024-03-23T01:52:26;6.25;;;2.70;;
85871;SDS011;76390;44.082;3.046;2024-03-23T01:54:55;5.00;;;3.45;;
85871;SDS011;76390;44.082;3.046;2024-03-23T01:57:21;4.50;;;2.85;;
85871;SDS011;76390;44.082;3.046;2024-03-23T01:59:47;6.72;;;3.05;;
85871;SDS011;76390;44.082;3.046;2024-03-23T02:02:13;6.65;;;2.58;;
85871;SDS011;76390;44.082;3.046;2024-03-23T02:04:38;7.20;;;2.88;;
85871;SDS011;76390;44.082;3.046;2024-03-23T02:07:04;3.53;;;2.28;;
85871;SDS011;76390;44.082;3.046;2024-03-23T02:09:32;5.65;;;2.20;;
85871;SDS011;76390;44.082;3.046;2024-03-23T02:11:58;7.13;;;2.63;;
85871;SDS011;76390;44.082;3.046;2024-03-23T02:14:24;4.70;;;2.38;;
85871;SDS011;76390;44.082;3.046;2024-03-23T02:16:49;7.15;;;2.42;;
85871;SDS011;76390;44.082;3.046;2024-03-23T02:19:15;5.70;;;2.55;;
85871;SDS011;76390;44.082;3.046;2024-03-23T02:21:40;5.18;;;2.53;;
85871;SDS011;76390;44.082;3.046;2024-03-23T02:24:06;5.18;;;2.85;;
85871;SDS011;76390;44.082;3.046;2024-03-23T02:26:31;9.15;;;2.92;;
85871;SDS011;76390;44.082;3.046;2024-03-23T02:28:57;7.13;;;3.05;;
85871;SDS011;76390;44.082;3.046;2024-03-23T02:31:22;4.65;;;2.50;;
85871;SDS011;76390;44.082;3.046;2024-03-23T02:33:48;4.82;;;2.75;;
85871;SDS011;76390;44.082;3.046;2024-03-23T02:36:13;5.38;;;2.55;;
85871;SDS011;76390;44.082;3.046;2024-03-23T02:38:40;5.93;;;2.78;;
85871;SDS011;76390;44.082;3.046;2024-03-23T02:41:06;4.72;;;2.47;;
85871;SDS011;76390;44.082;3.046;2024-03-23T02:43:31;4.72;;;2.67;;
85871;SDS011;76390;44.082;3.046;2024-03-23T02:45:57;5.25;;;2.55;;
85871;SDS011;76390;44.082;3.046;2024-03-23T02:48:22;5.85;;;2.65;;
85871;SDS011;76390;44.082;3.046;2024-03-23T02:50:48;4.78;;;2.70;;
85871;SDS011;76390;44.082;3.046;2024-03-23T02:53:14;4.88;;;2.35;;
85871;SDS011;76390;44.082;3.046;2024-03-23T02:55:39;5.38;;;2.97;;
85871;SDS011;76390;44.082;3.046;2024-03-23T02:58:05;5.97;;;2.38;;
85871;SDS011;76390;44.082;3.046;2024-03-23T03:00:30;6.38;;;2.72;;
85871;SDS011;76390;44.082;3.046;2024-03-23T03:02:56;6.78;;;2.75;;
85871;SDS011;76390;44.082;3.046;2024-03-23T03:05:21;7.43;;;2.47;;
85871;SDS011;76390;44.082;3.046;2024-03-23T03:07:47;6.82;;;3.40;;
85871;SDS011;76390;44.082;3.046;2024-03-23T03:10:12;5.50;;;3.08;;
85871;SDS011;76390;44.082;3.046;2024-03-23T03:12:38;5.32;;;2.90;;
85871;SDS011;76390;44.082;3.046;2024-03-23T03:15:04;7.38;;;3.40;;
85871;SDS011;76390;44.082;3.046;2024-03-23T03:17:30;6.40;;;2.88;;
85871;SDS011;76390;44.082;3.046;2024-03-23T03:19:56;12.27;;;5.80;;
85871;SDS011;76390;44.082;3.046;2024-03-23T03:22:22;8.55;;;3.88;;
85871;SDS011;76390;44.082;3.046;2024-03-23T03:24:47;6.85;;;3.33;;
85871;SDS011;76390;44.082;3.046;2024-03-23T03:27:13;9.02;;;3.42;;
85871;SDS011;76390;44.082;3.046;2024-03-23T03:29:38;7.78;;;3.17;;
85871;SDS011;76390;44.082;3.046;2024-03-23T03:32:04;5.60;;;2.75;;
85871;SDS011;76390;44.082;3.046;2024-03-23T03:34:30;5.40;;;3.05;;
85871;SDS011;76390;44.082;3.046;2024-03-23T03:36:56;8.50;;;3.22;;
85871;SDS011;76390;44.082;3.046;2024-03-23T03:39:21;6.18;;;2.97;;
85871;SDS011;76390;44.082;3.046;2024-03-23T03:41:48;6.30;;;2.70;;
85871;SDS011;76390;44.082;3.046;2024-03-23T03:44:14;7.22;;;3.20;;
85871;SDS011;76390;44.082;3.046;2024-03-23T03:46:39;4.88;;;3.22;;
85871;SDS011;76390;44.082;3.046;2024-03-23T03:49:05;5.28;;;2.70;;
85871;SDS011;76390;44.082;3.046;2024-03-23T03:51:30;6.95;;;3.15;;
85871;SDS011;76390;44.082;3.046;2024-03-23T03:53:56;6.75;;;3.55;;
85871;SDS011;76390;44.082;3.046;2024-03-23T03:56:23;7.80;;;3.28;;
85871;SDS011;76390;44.082;3.046;2024-03-23T03:58:48;8.15;;;3.63;;
85871;SDS011;76390;44.082;3.046;2024-03-23T04:01:14;7.28;;;2.90;;
85871;SDS011;76390;44.082;3.046;2024-03-23T04:03:40;7.65;;;3.38;;
85871;SDS011;76390;44.082;3.046;2024-03-23T04:06:09;6.32;;;3.50;;
85871;SDS011;76390;44.082;3.046;2024-03-23T04:08:35;6.70;;;3.10;;
85871;SDS011;76390;44.082;3.046;2024-03-23T04:11:00;6.00;;;3.42;;
85871;SDS011;76390;44.082;3.046;2024-03-23T04:13:26;7.72;;;3.50;;
85871;SDS011;76390;44.082;3.046;2024-03-23T04:15:55;7.13;;;3.63;;
85871;SDS011;76390;44.082;3.046;2024-03-23T04:18:21;6.82;;;3.53;;
85871;SDS011;76390;44.082;3.046;2024-03-23T04:20:47;6.45;;;3.15;;
85871;SDS011;76390;44.082;3.046;2024-03-23T04:23:13;5.13;;;3.13;;
85871;SDS011;76390;44.082;3.046;2024-03-23T04:25:39;8.90;;;3.70;;
85871;SDS011;76390;44.082;3.046;2024-03-23T04:28:05;5.85;;;3.58;;
85871;SDS011;76390;44.082;3.046;2024-03-23T04:30:31;6.53;;;3.90;;
85871;SDS011;76390;44.082;3.046;2024-03-23T04:32:57;5.85;;;3.10;;
85871;SDS011;76390;44.082;3.046;2024-03-23T04:35:23;7.30;;;3.88;;
85871;SDS011;76390;44.082;3.046;2024-03-23T04:37:53;7.57;;;3.50;;
85871;SDS011;76390;44.082;3.046;2024-03-23T04:40:18;6.32;;;3.58;;
85871;SDS011;76390;44.082;3.046;2024-03-23T04:42:44;9.00;;;3.53;;
85871;SDS011;76390;44.082;3.046;2024-03-23T04:45:09;9.20;;;3.55;;
85871;SDS011;76390;44.082;3.046;2024-03-23T04:47:36;6.25;;;3.83;;
85871;SDS011;76390;44.082;3.046;2024-03-23T04:50:03;5.32;;;3.15;;
85871;SDS011;76390;44.082;3.046;2024-03-23T04:52:29;5.35;;;2.38;;
85871;SDS011;76390;44.082;3.046;2024-03-23T04:54:55;7.70;;;4.32;;
85871;SDS011;76390;44.082;3.046;2024-03-23T04:57:20;7.07;;;4.22;;
85871;SDS011;76390;44.082;3.046;2024-03-23T04:59:46;6.35;;;2.78;;
85871;SDS011;76390;44.082;3.046;2024-03-23T05:02:12;5.22;;;2.88;;
85871;SDS011;76390;44.082;3.046;2024-03-23T05:04:38;3.75;;;2.08;;
85871;SDS011;76390;44.082;3.046;2024-03-23T05:07:03;6.00;;;2.78;;
85871;SDS011;76390;44.082;3.046;2024-03-23T05:09:32;5.60;;;2.20;;
85871;SDS011;76390;44.082;3.046;2024-03-23T05:11:59;4.68;;;2.97;;
85871;SDS011;76390;44.082;3.046;2024-03-23T05:14:25;5.47;;;2.70;;
85871;SDS011;76390;44.082;3.046;2024-03-23T05:16:52;6.93;;;2.05;;
85871;SDS011;76390;44.082;3.046;2024-03-23T05:19:17;4.03;;;2.13;;
85871;SDS011;76390;44.082;3.046;2024-03-23T05:21:43;6.63;;;1.70;;
85871;SDS011;76390;44.082;3.046;2024-03-23T05:24:08;6.90;;;2.35;;
85871;SDS011;76390;44.082;3.046;2024-03-23T05:26:34;5.47;;;2.28;;
85871;SDS011;76390;44.082;3.046;2024-03-23T05:29:00;5.32;;;2.30;;
85871;SDS011;76390;44.082;3.046;2024-03-23T05:31:27;5.63;;;2.90;;
85871;SDS011;76390;44.082;3.046;2024-03-23T05:33:53;5.88;;;2.80;;
85871;SDS011;76390;44.082;3.046;2024-03-23T05:36:19;2.85;;;1.60;;
85871;SDS011;76390;44.082;3.046;2024-03-23T05:38:45;4.22;;;2.25;;
85871;SDS011;76390;44.082;3.046;2024-03-23T05:41:11;4.75;;;2.38;;
85871;SDS011;76390;44.082;3.046;2024-03-23T05:43:37;4.68;;;2.40;;
85871;SDS011;76390;44.082;3.046;2024-03-23T05:46:03;5.28;;;2.40;;
85871;SDS011;76390;44.082;3.046;2024-03-23T05:48:32;3.95;;;2.28;;
85871;SDS011;76390;44.082;3.046;2024-03-23T05:50:58;2.97;;;1.73;;
85871;SDS011;76390;44.082;3.046;2024-03-23T05:53:24;4.15;;;2.10;;
85871;SDS011;76390;44.082;3.046;2024-03-23T05:55:50;5.05;;;2.13;;
85871;SDS011;76390;44.082;3.046;2024-03-23T05:58:18;6.43;;;2.58;;
85871;SDS011;76390;44.082;3.046;2024-03-23T06:00:45;4.15;;;2.00;;
85871;SDS011;76390;44.082;3.046;2024-03-23T06:03:11;3.78;;;1.75;;
85871;SDS011;76390;44.082;3.046;2024-03-23T06:05:37;4.57;;;1.75;;
85871;SDS011;76390;44.082;3.046;2024-03-23T06:08:02;2.92;;;1.52;;
85871;SDS011;76390;44.082;3.046;2024-03-23T06:10:28;3.60;;;1.80;;
85871;SDS011;76390;44.082;3.046;2024-03-23T06:12:54;4.20;;;2.30;;
85871;SDS011;76390;44.082;3.046;2024-03-23T06:15:19;3.10;;;1.70;;
85871;SDS011;76390;44.082;3.046;2024-03-23T06:17:45;5.20;;;2.15;;
85871;SDS011;76390;44.082;3.046;2024-03-23T06:20:11;6.57;;;2.30;;
85871;SDS011;76390;44.082;3.046;2024-03-23T06:22:38;3.55;;;1.95;;
85871;SDS011;76390;44.082;3.046;2024-03-23T06:25:03;4.63;;;1.50;;
85871;SDS011;76390;44.082;3.046;2024-03-23T06:27:29;5.65;;;2.00;;
85871;SDS011;76390;44.082;3.046;2024-03-23T06:29:54;3.25;;;1.60;;
85871;SDS011;76390;44.082;3.046;2024-03-23T06:32:20;4.88;;;2.00;;
85871;SDS011;76390;44.082;3.046;2024-03-23T06:34:46;3.63;;;1.80;;
85871;SDS011;76390;44.082;3.046;2024-03-23T06:37:12;3.95;;;2.08;;
85871;SDS011;76390;44.082;3.046;2024-03-23T06:39:37;3.17;;;1.88;;
85871;SDS011;76390;44.082;3.046;2024-03-23T06:42:03;3.55;;;1.70;;
85871;SDS011;76390;44.082;3.046;2024-03-23T06:44:29;2.35;;;1.30;;
85871;SDS011;76390;44.082;3.046;2024-03-23T06:46:55;4.53;;;1.70;;
85871;SDS011;76390;44.082;3.046;2024-03-23T06:49:22;3.28;;;1.48;;
85871;SDS011;76390;44.082;3.046;2024-03-23T06:51:48;3.15;;;1.83;;
85871;SDS011;76390;44.082;3.046;2024-03-23T06:54:13;2.88;;;1.48;;
85871;SDS011;76390;44.082;3.046;2024-03-23T06:56:40;2.70;;;1.50;;
85871;SDS011;76390;44.082;3.046;2024-03-23T06:59:05;6.28;;;1.90;;
85871;SDS011;76390;44.082;3.046;2024-03-23T07:01:31;4.18;;;1.92;;
85871;SDS011;76390;44.082;3.046;2024-03-23T07:03:57;3.65;;;1.80;;
85871;SDS011;76390;44.082;3.046;2024-03-23T07:06:22;3.72;;;1.92;;
85871;SDS011;76390;44.082;3.046;2024-03-23T07:08:48;5.43;;;2.00;;
85871;SDS011;76390;44.082;3.046;2024-03-23T07:11:20;3.33;;;1.92;;
85871;SDS011;76390;44.082;3.046;2024-03-23T07:13:46;4.38;;;2.00;;
85871;SDS011;76390;44.082;3.046;2024-03-23T07:16:13;4.78;;;2.13;;
85871;SDS011;76390;44.082;3.046;2024-03-23T07:18:38;3.42;;;1.90;;
85871;SDS011;76390;44.082;3.046;2024-03-23T07:21:04;3.97;;;1.85;;
85871;SDS011;76390;44.082;3.046;2024-03-23T07:23:32;3.38;;;1.95;;
85871;SDS011;76390;44.082;3.046;2024-03-23T07:25:58;3.58;;;1.77;;
85871;SDS011;76390;44.082;3.046;2024-03-23T07:28:24;3.90;;;1.42;;
85871;SDS011;76390;44.082;3.046;2024-03-23T07:31:08;3.72;;;2.00;;
85871;SDS011;76390;44.082;3.046;2024-03-23T07:33:36;2.88;;;1.15;;
85871;SDS011;76390;44.082;3.046;2024-03-23T07:36:03;3.60;;;1.90;;
85871;SDS011;76390;44.082;3.046;2024-03-23T07:38:29;3.47;;;1.55;;
85871;SDS011;76390;44.082;3.046;2024-03-23T07:43:34;3.85;;;2.05;;
85871;SDS011;76390;44.082;3.046;2024-03-23T07:46:00;3.53;;;1.75;;
85871;SDS011;76390;44.082;3.046;2024-03-23T07:48:26;4.60;;;1.95;;
85871;SDS011;76390;44.082;3.046;2024-03-23T07:53:30;3.13;;;1.50;;
85871;SDS011;76390;44.082;3.046;2024-03-23T07:56:00;3.10;;;1.70;;
85871;SDS011;76390;44.082;3.046;2024-03-23T07:58:26;3.78;;;1.67;;
85871;SDS011;76390;44.082;3.046;2024-03-23T08:00:52;3.00;;;1.55;;
85871;SDS011;76390;44.082;3.046;2024-03-23T08:03:18;3.28;;;1.70;;
85871;SDS011;76390;44.082;3.046;2024-03-23T08:05:44;6.55;;;1.73;;
85871;SDS011;76390;44.082;3.046;2024-03-23T08:08:10;2.92;;;1.52;;
85871;SDS011;76390;44.082;3.046;2024-03-23T08:10:36;2.88;;;1.38;;
85871;SDS011;76390;44.082;3.046;2024-03-23T08:13:02;3.17;;;1.52;;
85871;SDS011;76390;44.082;3.046;2024-03-23T08:15:30;1.80;;;1.20;;
85871;SDS011;76390;44.082;3.046;2024-03-23T08:17:58;2.05;;;1.20;;
85871;SDS011;76390;44.082;3.046;2024-03-23T08:20:24;2.40;;;1.30;;
85871;SDS011;76390;44.082;3.046;2024-03-23T08:22:50;2.90;;;1.38;;
85871;SDS011;76390;44.082;3.046;2024-03-23T08:25:15;1.88;;;1.10;;
85871;SDS011;76390;44.082;3.046;2024-03-23T08:27:43;3.33;;;1.15;;
85871;SDS011;76390;44.082;3.046;2024-03-23T08:30:09;3.67;;;1.30;;
85871;SDS011;76390;44.082;3.046;2024-03-23T08:32:36;2.17;;;1.45;;
85871;SDS011;76390;44.082;3.046;2024-03-23T08:35:02;2.80;;;1.42;;
85871;SDS011;76390;44.082;3.046;2024-03-23T08:37:27;2.15;;;1.13;;
85871;SDS011;76390;44.082;3.046;2024-03-23T08:39:53;2.30;;;0.85;;
85871;SDS011;76390;44.082;3.046;2024-03-23T08:42:18;2.75;;;1.17;;
85871;SDS011;76390;44.082;3.046;2024-03-23T08:44:44;2.47;;;1.35;;
85871;SDS011;76390;44.082;3.046;2024-03-23T08:47:11;3.05;;;1.40;;
85871;SDS011;76390;44.082;3.046;2024-03-23T08:49:37;3.30;;;1.48;;
85871;SDS011;76390;44.082;3.046;2024-03-23T08:52:02;2.75;;;1.50;;
85871;SDS011;76390;44.082;3.046;2024-03-23T08:54:28;1.42;;;0.93;;
85871;SDS011;76390;44.082;3.046;2024-03-23T08:56:56;1.50;;;1.05;;
85871;SDS011;76390;44.082;3.046;2024-03-23T08:59:21;1.85;;;0.70;;
85871;SDS011;76390;44.082;3.046;2024-03-23T09:01:49;1.23;;;0.90;;
85871;SDS011;76390;44.082;3.046;2024-03-23T09:04:14;1.52;;;0.95;;
85871;SDS011;76390;44.082;3.046;2024-03-23T09:06:42;1.85;;;1.05;;
85871;SDS011;76390;44.082;3.046;2024-03-23T09:09:08;1.15;;;0.80;;
85871;SDS011;76390;44.082;3.046;2024-03-23T09:11:33;1.00;;;0.40;;
85871;SDS011;76390;44.082;3.046;2024-03-23T09:13:59;1.83;;;1.05;;
85871;SDS011;76390;44.082;3.046;2024-03-23T09:16:24;0.95;;;0.50;;
85871;SDS011;76390;44.082;3.046;2024-03-23T09:18:50;0.90;;;0.70;;
85871;SDS011;76390;44.082;3.046;2024-03-23T09:21:16;0.88;;;0.50;;
85871;SDS011;76390;44.082;3.046;2024-03-23T09:23:45;2.50;;;0.98;;
85871;SDS011;76390;44.082;3.046;2024-03-23T09:26:11;3.08;;;0.80;;
85871;SDS011;76390;44.082;3.046;2024-03-23T09:28:36;1.00;;;0.63;;
85871;SDS011;76390;44.082;3.046;2024-03-23T09:31:05;1.33;;;0.50;;
85871;SDS011;76390;44.082;3.046;2024-03-23T09:33:40;1.20;;;0.55;;
85871;SDS011;76390;44.082;3.046;2024-03-23T09:36:06;2.50;;;1.15;;
85871;SDS011;76390;44.082;3.046;2024-03-23T09:38:32;1.60;;;0.60;;
85871;SDS011;76390;44.082;3.046;2024-03-23T09:40:58;1.40;;;0.63;;
85871;SDS011;76390;44.082;3.046;2024-03-23T09:43:24;1.42;;;0.55;;
85871;SDS011;76390;44.082;3.046;2024-03-23T09:45:50;0.88;;;0.60;;
85871;SDS011;76390;44.082;3.046;2024-03-23T09:48:16;1.45;;;0.60;;
85871;SDS011;76390;44.082;3.046;2024-03-23T09:50:42;0.82;;;0.50;;
85871;SDS011;76390;44.082;3.046;2024-03-23T09:53:09;1.33;;;0.60;;
85871;SDS011;76390;44.082;3.046;2024-03-23T09:55:36;1.15;;;0.70;;
85871;SDS011;76390;44.082;3.046;2024-03-23T09:58:03;3.38;;;0.73;;
85871;SDS011;76390;44.082;3.046;2024-03-23T10:00:30;2.72;;;0.90;;
85871;SDS011;76390;44.082;3.046;2024-03-23T10:02:56;1.27;;;0.90;;
85871;SDS011;76390;44.082;3.046;2024-03-23T10:05:29;1.67;;;0.90;;
85871;SDS011;76390;44.082;3.046;2024-03-23T10:08:22;2.00;;;0.98;;
85871;SDS011;76390;44.082;3.046;2024-03-23T10:10:47;1.35;;;0.70;;
85871;SDS011;76390;44.082;3.046;2024-03-23T10:13:26;2.85;;;0.90;;
85871;SDS011;76390;44.082;3.046;2024-03-23T10:15:58;1.83;;;0.63;;
85871;SDS011;76390;44.082;3.046;2024-03-23T10:18:25;2.08;;;0.63;;
85871;SDS011;76390;44.082;3.046;2024-03-23T10:20:52;1.65;;;0.50;;
85871;SDS011;76390;44.082;3.046;2024-03-23T10:23:39;0.38;;;0.38;;
85871;SDS011;76390;44.082;3.046;2024-03-23T10:26:18;1.65;;;0.80;;
85871;SDS011;76390;44.082;3.046;2024-03-23T10:28:55;0.98;;;0.35;;
85871;SDS011;76390;44.082;3.046;2024-03-23T10:31:33;1.35;;;0.70;;
85871;SDS011;76390;44.082;3.046;2024-03-23T10:34:00;0.55;;;0.35;;
85871;SDS011;76390;44.082;3.046;2024-03-23T10:36:26;1.58;;;0.70;;
85871;SDS011;76390;44.082;3.046;2024-03-23T10:38:52;2.45;;;0.75;;
85871;SDS011;76390;44.082;3.046;2024-03-23T10:41:19;1.50;;;0.60;;
85871;SDS011;76390;44.082;3.046;2024-03-23T10:43:45;2.08;;;0.60;;
85871;SDS011;76390;44.082;3.046;2024-03-23T10:46:12;3.25;;;1.35;;
85871;SDS011;76390;44.082;3.046;2024-03-23T10:48:38;1.00;;;0.52;;
85871;SDS011;76390;44.082;3.046;2024-03-23T10:51:04;3.60;;;0.90;;
85871;SDS011;76390;44.082;3.046;2024-03-23T10:53:31;2.83;;;0.63;;
85871;SDS011;76390;44.082;3.046;2024-03-23T10:55:58;1.73;;;0.52;;
85871;SDS011;76390;44.082;3.046;2024-03-23T10:58:29;0.93;;;0.43;;
85871;SDS011;76390;44.082;3.046;2024-03-23T11:00:57;4.03;;;1.45;;
85871;SDS011;76390;44.082;3.046;2024-03-23T11:03:33;3.05;;;1.38;;
85871;SDS011;76390;44.082;3.046;2024-03-23T11:06:01;2.47;;;1.00;;
85871;SDS011;76390;44.082;3.046;2024-03-23T11:08:31;3.83;;;1.00;;
85871;SDS011;76390;44.082;3.046;2024-03-23T11:13:39;2.70;;;0.73;;
85871;SDS011;76390;44.082;3.046;2024-03-23T11:16:23;2.20;;;0.90;;
85871;SDS011;76390;44.082;3.046;2024-03-23T11:18:50;4.20;;;0.88;;
85871;SDS011;76390;44.082;3.046;2024-03-23T11:24:23;1.98;;;0.80;;
85871;SDS011;76390;44.082;3.046;2024-03-23T11:26:48;2.30;;;0.93;;
85871;SDS011;76390;44.082;3.046;2024-03-23T11:29:14;2.53;;;0.80;;
85871;SDS011;76390;44.082;3.046;2024-03-23T11:31:50;2.08;;;0.90;;
85871;SDS011;76390;44.082;3.046;2024-03-23T11:34:17;2.70;;;0.90;;
85871;SDS011;76390;44.082;3.046;2024-03-23T11:36:44;3.67;;;0.90;;
85871;SDS011;76390;44.082;3.046;2024-03-23T11:44:19;1.33;;;0.65;;
85871;SDS011;76390;44.082;3.046;2024-03-23T11:46:47;2.33;;;0.73;;
85871;SDS011;76390;44.082;3.046;2024-03-23T11:49:20;1.50;;;0.82;;
85871;SDS011;76390;44.082;3.046;2024-03-23T11:51:49;4.13;;;0.90;;
85871;SDS011;76390;44.082;3.046;2024-03-23T11:54:16;2.38;;;0.63;;
85871;SDS011;76390;44.082;3.046;2024-03-23T11:56:53;2.03;;;0.85;;
85871;SDS011;76390;44.082;3.046;2024-03-23T12:01:58;1.80;;;0.70;;
85871;SDS011;76390;44.082;3.046;2024-03-23T12:04:27;3.78;;;0.80;;
85871;SDS011;76390;44.082;3.046;2024-03-23T12:10:04;3.58;;;1.33;;
85871;SDS011;76390;44.082;3.046;2024-03-23T12:12:31;2.95;;;1.10;;
85871;SDS011;76390;44.082;3.046;2024-03-23T12:15:06;3.35;;;1.08;;
85871;SDS011;76390;44.082;3.046;2024-03-23T12:17:33;2.22;;;0.80;;
85871;SDS011;76390;44.082;3.046;2024-03-23T12:20:02;1.52;;;0.50;;
85871;SDS011;76390;44.082;3.046;2024-03-23T12:22:28;1.17;;;0.73;;
85871;SDS011;76390;44.082;3.046;2024-03-23T12:24:55;2.20;;;0.80;;
85871;SDS011;76390;44.082;3.046;2024-03-23T12:27:20;2.08;;;0.70;;
85871;SDS011;76390;44.082;3.046;2024-03-23T12:29:46;3.90;;;0.80;;
85871;SDS011;76390;44.082;3.046;2024-03-23T12:32:12;1.05;;;0.50;;
85871;SDS011;76390;44.082;3.046;2024-03-23T12:34:38;2.92;;;1.08;;
85871;SDS011;76390;44.082;3.046;2024-03-23T12:37:04;1.33;;;0.57;;
85871;SDS011;76390;44.082;3.046;2024-03-23T12:39:31;1.95;;;0.80;;
85871;SDS011;76390;44.082;3.046;2024-03-23T12:41:56;3.97;;;0.47;;
85871;SDS011;76390;44.082;3.046;2024-03-23T12:44:22;3.35;;;0.88;;
85871;SDS011;76390;44.082;3.046;2024-03-23T12:46:47;1.08;;;0.50;;
85871;SDS011;76390;44.082;3.046;2024-03-23T12:49:13;2.33;;;0.90;;
85871;SDS011;76390;44.082;3.046;2024-03-23T12:51:38;1.42;;;0.75;;
85871;SDS011;76390;44.082;3.046;2024-03-23T12:54:04;1.95;;;0.75;;
85871;SDS011;76390;44.082;3.046;2024-03-23T12:56:30;2.60;;;0.95;;
85871;SDS011;76390;44.082;3.046;2024-03-23T12:58:56;1.88;;;0.60;;
85871;SDS011;76390;44.082;3.046;2024-03-23T13:01:25;1.40;;;0.63;;
85871;SDS011;76390;44.082;3.046;2024-03-23T13:03:51;2.15;;;0.80;;
85871;SDS011;76390;44.082;3.046;2024-03-23T13:06:17;1.25;;;0.60;;
85871;SDS011;76390;44.082;3.046;2024-03-23T13:08:46;1.35;;;0.43;;
85871;SDS011;76390;44.082;3.046;2024-03-23T13:11:12;1.95;;;0.50;;
85871;SDS011;76390;44.082;3.046;2024-03-23T13:13:42;3.05;;;0.82;;
85871;SDS011;76390;44.082;3.046;2024-03-23T13:16:07;2.60;;;0.70;;
85871;SDS011;76390;44.082;3.046;2024-03-23T13:18:33;3.58;;;0.65;;
85871;SDS011;76390;44.082;3.046;2024-03-23T13:20:59;1.85;;;0.80;;
85871;SDS011;76390;44.082;3.046;2024-03-23T13:23:24;4.38;;;0.77;;
85871;SDS011;76390;44.082;3.046;2024-03-23T13:25:53;2.15;;;0.85;;
85871;SDS011;76390;44.082;3.046;2024-03-23T13:28:20;3.08;;;0.93;;
85871;SDS011;76390;44.082;3.046;2024-03-23T13:30:55;2.47;;;0.95;;
85871;SDS011;76390;44.082;3.046;2024-03-23T13:33:22;2.42;;;0.75;;
85871;SDS011;76390;44.082;3.046;2024-03-23T13:35:57;1.90;;;0.60;;
85871;SDS011;76390;44.082;3.046;2024-03-23T13:38:22;1.90;;;0.60;;
85871;SDS011;76390;44.082;3.046;2024-03-23T13:40:58;0.88;;;0.60;;
85871;SDS011;76390;44.082;3.046;2024-03-23T13:43:25;0.60;;;0.20;;
85871;SDS011;76390;44.082;3.046;2024-03-23T13:45:58;3.50;;;0.75;;
85871;SDS011;76390;44.082;3.046;2024-03-23T13:48:25;2.65;;;0.80;;
85871;SDS011;76390;44.082;3.046;2024-03-23T13:50:58;2.50;;;0.60;;
85871;SDS011;76390;44.082;3.046;2024-03-23T13:53:27;1.50;;;0.70;;
85871;SDS011;76390;44.082;3.046;2024-03-23T13:55:53;1.42;;;0.50;;
85871;SDS011;76390;44.082;3.046;2024-03-23T13:58:19;1.27;;;0.50;;
85871;SDS011;76390;44.082;3.046;2024-03-23T14:00:44;1.63;;;0.80;;
85871;SDS011;76390;44.082;3.046;2024-03-23T14:03:10;4.07;;;0.80;;
85871;SDS011;76390;44.082;3.046;2024-03-23T14:05:37;1.70;;;0.43;;
85871;SDS011;76390;44.082;3.046;2024-03-23T14:08:09;2.00;;;0.50;;
85871;SDS011;76390;44.082;3.046;2024-03-23T14:10:35;3.60;;;0.65;;
85871;SDS011;76390;44.082;3.046;2024-03-23T14:13:04;3.13;;;0.65;;
85871;SDS011;76390;44.082;3.046;2024-03-23T14:15:30;3.05;;;0.80;;
85871;SDS011;76390;44.082;3.046;2024-03-23T14:17:55;1.65;;;0.70;;
85871;SDS011;76390;44.082;3.046;2024-03-23T14:20:21;1.73;;;0.63;;
85871;SDS011;76390;44.082;3.046;2024-03-23T14:22:50;4.00;;;0.90;;
85871;SDS011;76390;44.082;3.046;2024-03-23T14:25:15;1.73;;;0.47;;
85871;SDS011;76390;44.082;3.046;2024-03-23T14:27:41;0.98;;;0.50;;
85871;SDS011;76390;44.082;3.046;2024-03-23T14:30:09;2.63;;;0.70;;
85871;SDS011;76390;44.082;3.046;2024-03-23T14:32:35;2.42;;;0.70;;
85871;SDS011;76390;44.082;3.046;2024-03-23T14:35:05;1.63;;;0.70;;
85871;SDS011;76390;44.082;3.046;2024-03-23T14:37:36;0.88;;;0.60;;
85871;SDS011;76390;44.082;3.046;2024-03-23T14:40:03;3.00;;;0.73;;
85871;SDS011;76390;44.082;3.046;2024-03-23T14:42:29;2.28;;;0.50;;
85871;SDS011;76390;44.082;3.046;2024-03-23T14:44:54;2.85;;;0.60;;
85871;SDS011;76390;44.082;3.046;2024-03-23T14:47:19;2.80;;;0.70;;
85871;SDS011;76390;44.082;3.046;2024-03-23T14:49:46;2.85;;;0.90;;
85871;SDS011;76390;44.082;3.046;2024-03-23T14:52:15;1.08;;;0.60;;
85871;SDS011;76390;44.082;3.046;2024-03-23T14:54:42;2.70;;;0.70;;
85871;SDS011;76390;44.082;3.046;2024-03-23T14:57:07;2.28;;;0.60;;
85871;SDS011;76390;44.082;3.046;2024-03-23T14:59:34;4.35;;;0.95;;
85871;SDS011;76390;44.082;3.046;2024-03-23T15:02:08;1.88;;;0.68;;
85871;SDS011;76390;44.082;3.046;2024-03-23T15:04:34;3.47;;;0.80;;
85871;SDS011;76390;44.082;3.046;2024-03-23T15:07:00;1.58;;;0.60;;
85871;SDS011;76390;44.082;3.046;2024-03-23T15:09:26;1.77;;;0.45;;
85871;SDS011;76390;44.082;3.046;2024-03-23T15:11:51;0.77;;;0.32;;
85871;SDS011;76390;44.082;3.046;2024-03-23T15:14:17;2.45;;;0.68;;
85871;SDS011;76390;44.082;3.046;2024-03-23T15:16:42;2.67;;;0.82;;
85871;SDS011;76390;44.082;3.046;2024-03-23T15:19:08;2.15;;;0.75;;
85871;SDS011;76390;44.082;3.046;2024-03-23T15:21:34;1.42;;;0.40;;
85871;SDS011;76390;44.082;3.046;2024-03-23T15:23:59;3.13;;;0.80;;
85871;SDS011;76390;44.082;3.046;2024-03-23T15:26:25;3.08;;;0.90;;
85871;SDS011;76390;44.082;3.046;2024-03-23T15:28:51;4.05;;;0.73;;
85871;SDS011;76390;44.082;3.046;2024-03-23T15:31:22;2.25;;;0.60;;
85871;SDS011;76390;44.082;3.046;2024-03-23T15:33:48;3.25;;;0.57;;
85871;SDS011;76390;44.082;3.046;2024-03-23T15:36:14;4.63;;;1.02;;
85871;SDS011;76390;44.082;3.046;2024-03-23T15:38:39;4.30;;;0.73;;
85871;SDS011;76390;44.082;3.046;2024-03-23T15:41:05;3.08;;;0.95;;
85871;SDS011;76390;44.082;3.046;2024-03-23T15:43:30;2.95;;;0.50;;
85871;SDS011;76390;44.082;3.046;2024-03-23T15:45:59;3.38;;;0.50;;
85871;SDS011;76390;44.082;3.046;2024-03-23T15:48:26;2.42;;;0.73;;
85871;SDS011;76390;44.082;3.046;2024-03-23T15:50:55;3.28;;;0.82;;
85871;SDS011;76390;44.082;3.046;2024-03-23T15:53:22;4.55;;;0.70;;
85871;SDS011;76390;44.082;3.046;2024-03-23T15:55:55;2.63;;;1.00;;
85871;SDS011;76390;44.082;3.046;2024-03-23T15:58:21;2.15;;;0.73;;
85871;SDS011;76390;44.082;3.046;2024-03-23T16:01:00;2.00;;;0.52;;